createdAt,value
2022-10-01T00:02:11.880Z,100.00
2022-10-01T00:04:40.002Z,100.00
2022-10-01T00:07:11.068Z,100.00
2022-10-01T00:09:40.592Z,100.00
2022-10-01T00:12:09.147Z,100.00
2022-10-01T00:14:39.458Z,100.00
2022-10-01T00:17:07.534Z,100.00
2022-10-01T00:19:35.576Z,100.00
2022-10-01T00:22:03.572Z,100.00
2022-10-01T00:24:31.598Z,100.00
2022-10-01T00:27:00.946Z,100.00
2022-10-01T00:29:29.072Z,100.00
2022-10-01T00:31:57.366Z,100.00
2022-10-01T00:34:25.562Z,100.00
2022-10-01T00:36:53.646Z,100.00
2022-10-01T00:39:21.933Z,100.00
2022-10-01T00:41:49.964Z,100.00
2022-10-01T00:44:34.524Z,100.00
2022-10-01T00:47:10.631Z,100.00
2022-10-01T00:49:40.984Z,100.00
2022-10-01T00:52:16.987Z,100.00
2022-10-01T00:54:49.379Z,100.00
2022-10-01T00:57:20.413Z,100.00
2022-10-01T00:59:51.562Z,100.00
2022-10-01T01:02:19.614Z,100.00
2022-10-01T01:04:48.272Z,100.00
2022-10-01T01:07:16.984Z,100.00
2022-10-01T01:09:48.289Z,100.00
2022-10-01T01:12:27.433Z,100.00
2022-10-01T01:15:10.425Z,100.00
2022-10-01T01:17:48.861Z,100.00
2022-10-01T01:20:31.152Z,100.00
2022-10-01T01:23:08.316Z,100.00
2022-10-01T01:25:47.345Z,100.00
2022-10-01T01:28:23.940Z,100.00
2022-10-01T01:30:58.656Z,100.00
2022-10-01T01:33:30.886Z,100.00
2022-10-01T01:36:04.690Z,100.00
2022-10-01T01:38:37.391Z,100.00
2022-10-01T01:41:07.992Z,100.00
2022-10-01T01:43:41.864Z,100.00
2022-10-01T01:46:11.727Z,100.00
2022-10-01T01:48:41.834Z,100.00
2022-10-01T01:51:15.433Z,100.00
2022-10-01T01:53:43.548Z,100.00
2022-10-01T01:56:11.825Z,100.00
2022-10-01T01:58:41.613Z,100.00
2022-10-01T02:01:25.283Z,100.00
2022-10-01T02:03:53.376Z,100.00
2022-10-01T02:06:35.596Z,100.00
2022-10-01T02:09:11.449Z,100.00
2022-10-01T02:11:53.384Z,100.00
2022-10-01T02:14:31.495Z,100.00
2022-10-01T02:17:03.821Z,100.00
2022-10-01T02:19:40.331Z,100.00
2022-10-01T02:22:13.266Z,100.00
2022-10-01T02:24:45.794Z,100.00
2022-10-01T02:27:17.288Z,100.00
2022-10-01T02:29:47.165Z,100.00
2022-10-01T02:32:17.213Z,100.00
2022-10-01T02:34:47.129Z,100.00
2022-10-01T02:37:16.084Z,100.00
2022-10-01T02:39:45.417Z,100.00
2022-10-01T02:42:16.890Z,100.00
2022-10-01T02:44:47.855Z,100.00
2022-10-01T02:47:21.518Z,100.00
2022-10-01T02:49:50.914Z,100.00
2022-10-01T02:52:27.409Z,100.00
2022-10-01T02:54:58.507Z,100.00
2022-10-01T02:57:28.244Z,100.00
2022-10-01T02:59:59.990Z,100.00
2022-10-01T03:02:29.885Z,100.00
2022-10-01T03:04:58.467Z,100.00
2022-10-01T03:07:26.947Z,100.00
2022-10-01T03:09:54.986Z,100.00
2022-10-01T03:12:23.484Z,100.00
2022-10-01T03:14:52.074Z,100.00
2022-10-01T03:17:21.607Z,100.00
2022-10-01T03:19:49.760Z,100.00
2022-10-01T03:22:22.509Z,100.00
2022-10-01T03:24:50.634Z,100.00
2022-10-01T03:27:19.005Z,100.00
2022-10-01T03:29:47.575Z,100.00
2022-10-01T03:32:16.146Z,100.00
2022-10-01T03:34:45.921Z,100.00
2022-10-01T03:37:14.205Z,100.00
2022-10-01T03:39:42.213Z,100.00
2022-10-01T03:42:10.266Z,100.00
2022-10-01T03:44:38.248Z,100.00
2022-10-01T03:47:06.224Z,100.00
2022-10-01T03:49:34.636Z,100.00
2022-10-01T03:52:05.418Z,100.00
2022-10-01T03:54:33.649Z,100.00
2022-10-01T03:57:01.739Z,100.00
2022-10-01T03:59:29.878Z,100.00
2022-10-01T04:01:57.904Z,100.00
2022-10-01T04:04:26.052Z,100.00
2022-10-01T04:06:54.013Z,100.00
2022-10-01T04:09:23.697Z,100.00
2022-10-01T04:11:51.642Z,100.00
2022-10-01T04:14:19.574Z,100.00
2022-10-01T04:16:49.862Z,100.00
2022-10-01T04:19:17.905Z,100.00
2022-10-01T04:21:45.964Z,100.00
2022-10-01T04:24:13.922Z,100.00
2022-10-01T04:26:43.416Z,100.00
2022-10-01T04:29:11.395Z,100.00
2022-10-01T04:31:40.403Z,100.00
2022-10-01T04:34:08.496Z,100.00
2022-10-01T04:36:36.558Z,100.00
2022-10-01T04:39:08.949Z,100.00
2022-10-01T04:41:37.129Z,100.00
2022-10-01T04:44:07.098Z,100.00
2022-10-01T04:46:36.393Z,100.00
2022-10-01T04:49:04.529Z,100.00
2022-10-01T04:51:32.792Z,100.00
2022-10-01T04:54:01.131Z,100.00
2022-10-01T04:56:29.038Z,100.00
2022-10-01T04:58:56.997Z,100.00
2022-10-01T05:01:26.549Z,100.00
2022-10-01T05:03:54.561Z,100.00
2022-10-01T05:06:22.622Z,100.00
2022-10-01T05:08:50.817Z,100.00
2022-10-01T05:11:18.873Z,100.00
2022-10-01T05:13:46.837Z,100.00
2022-10-01T05:16:14.847Z,100.00
2022-10-01T05:18:44.256Z,100.00
2022-10-01T05:21:12.806Z,100.00
2022-10-01T05:23:40.721Z,100.00
2022-10-01T05:26:09.511Z,100.00
2022-10-01T05:28:39.183Z,100.00
2022-10-01T05:31:07.425Z,100.00
2022-10-01T05:33:35.513Z,100.00
2022-10-01T05:36:07.181Z,100.00
2022-10-01T05:38:37.346Z,100.00
2022-10-01T05:41:05.512Z,100.00
2022-10-01T05:43:33.716Z,100.00
2022-10-01T05:46:02.889Z,100.00
2022-10-01T05:48:37.082Z,100.00
2022-10-01T05:51:08.403Z,100.00
2022-10-01T05:53:37.873Z,100.00
2022-10-01T05:56:06.516Z,100.00
2022-10-01T05:58:35.659Z,100.00
2022-10-01T06:01:04.214Z,100.00
2022-10-01T06:03:32.526Z,100.00
2022-10-01T06:06:00.852Z,100.00
2022-10-01T06:08:30.156Z,100.00
2022-10-01T06:11:01.409Z,100.00
2022-10-01T06:13:30.150Z,100.00
2022-10-01T06:15:58.125Z,100.00
2022-10-01T06:18:27.381Z,100.00
2022-10-01T06:20:55.373Z,100.00
2022-10-01T06:23:23.350Z,100.00
2022-10-01T06:25:52.822Z,100.00
2022-10-01T06:28:21.248Z,100.00
2022-10-01T06:30:49.776Z,100.00
2022-10-01T06:33:18.740Z,100.00
2022-10-01T06:35:48.607Z,100.00
2022-10-01T06:38:17.819Z,100.00
2022-10-01T06:40:45.796Z,100.00
2022-10-01T06:43:15.231Z,100.00
2022-10-01T06:45:43.359Z,100.00
2022-10-01T06:48:15.049Z,100.00
2022-10-01T06:50:43.908Z,100.00
2022-10-01T06:53:12.202Z,100.00
2022-10-01T06:55:40.368Z,100.00
2022-10-01T06:58:11.197Z,100.00
2022-10-01T07:00:40.890Z,100.00
2022-10-01T07:03:11.158Z,100.00
2022-10-01T07:05:39.690Z,100.00
2022-10-01T07:08:08.440Z,100.00
2022-10-01T07:10:37.502Z,100.00
2022-10-01T07:13:09.957Z,100.00
2022-10-01T07:15:38.250Z,100.00
2022-10-01T07:18:11.209Z,100.00
2022-10-01T07:20:40.771Z,100.00
2022-10-01T07:23:11.195Z,100.00
2022-10-01T07:25:39.810Z,100.00
2022-10-01T07:28:16.007Z,100.00
2022-10-01T07:30:44.500Z,100.00
2022-10-01T07:33:13.990Z,100.00
2022-10-01T07:35:42.344Z,100.00
2022-10-01T07:38:10.464Z,100.00
2022-10-01T07:40:38.403Z,100.00
2022-10-01T07:43:06.401Z,100.00
2022-10-01T07:45:34.445Z,100.00
2022-10-01T07:48:04.270Z,100.00
2022-10-01T07:50:33.673Z,100.00
2022-10-01T07:53:02.826Z,100.00
2022-10-01T07:55:32.837Z,100.00
2022-10-01T07:58:01.520Z,100.00
2022-10-01T08:00:31.342Z,100.00
2022-10-01T08:02:59.347Z,100.00
2022-10-01T08:05:29.721Z,100.00
2022-10-01T08:08:02.019Z,100.00
2022-10-01T08:10:30.740Z,100.00
2022-10-01T08:13:02.118Z,100.00
2022-10-01T08:15:30.096Z,100.00
2022-10-01T08:17:58.043Z,100.00
2022-10-01T08:20:25.978Z,100.00
2022-10-01T08:22:53.968Z,100.00
2022-10-01T08:25:23.344Z,100.00
2022-10-01T08:27:51.423Z,100.00
2022-10-01T08:30:19.341Z,100.00
2022-10-01T08:32:47.323Z,100.00
2022-10-01T08:35:16.144Z,100.00
2022-10-01T08:37:44.412Z,100.00
2022-10-01T08:40:12.387Z,100.00
2022-10-01T08:42:52.343Z,100.00
2022-10-01T08:45:27.004Z,100.00
2022-10-01T08:47:59.749Z,100.00
2022-10-01T08:50:40.106Z,100.00
2022-10-01T08:53:15.650Z,99.76
2022-10-01T08:55:44.958Z,100.00
2022-10-01T08:58:22.994Z,100.00
2022-10-01T09:00:52.721Z,100.00
2022-10-01T09:03:20.717Z,100.00
2022-10-01T09:06:04.110Z,97.63
2022-10-01T09:08:46.076Z,100.00
2022-10-01T09:11:23.890Z,99.84
2022-10-01T09:14:13.858Z,96.14
2022-10-01T09:16:52.635Z,83.82
2022-10-01T09:19:35.822Z,84.08
2022-10-01T09:22:12.268Z,84.21
2022-10-01T09:24:45.356Z,79.20
2022-10-01T09:27:16.159Z,80.36
2022-10-01T09:29:50.493Z,87.24
2022-10-01T09:32:23.436Z,89.26
2022-10-01T09:34:52.011Z,79.05
2022-10-01T09:37:37.326Z,78.34
2022-10-01T09:40:15.903Z,78.72
2022-10-01T09:42:44.532Z,86.17
2022-10-01T09:45:16.263Z,74.34
2022-10-01T09:47:46.607Z,76.00
2022-10-01T09:50:19.082Z,80.63
2022-10-01T09:52:50.865Z,70.41
2022-10-01T09:55:33.836Z,66.10
2022-10-01T09:58:08.878Z,63.22
2022-10-01T10:00:41.059Z,65.95
2022-10-01T10:03:09.407Z,63.22
2022-10-01T10:05:48.216Z,65.64
2022-10-01T10:08:21.731Z,66.61
2022-10-01T16:58:37.005Z,100.00
2022-10-01T17:13:23.700Z,100.00
2022-10-01T17:19:48.348Z,100.00
